sensor_id;sensor_type;location;lat;lon;timestamp;pressure;altitude;pressure_sealevel;temperature;humidity
31285;BME280;56605;51.516;6.742;2023-01-30T00:01:36;101736.13;;;2.21;100.00
31285;BME280;56605;51.516;6.742;2023-01-30T00:04:02;101723.72;;;2.23;100.00
31285;BME280;56605;51.516;6.742;2023-01-30T00:06:27;101705.38;;;2.21;100.00
31285;BME280;56605;51.516;6.742;2023-01-30T00:08:53;101689.47;;;2.23;100.00
31285;BME280;56605;51.516;6.742;2023-01-30T00:11:19;101710.47;;;2.24;100.00
31285;BME280;56605;51.516;6.742;2023-01-30T00:13:47;101695.13;;;2.31;100.00
31285;BME280;56605;51.516;6.742;2023-01-30T00:16:12;101699.31;;;2.35;100.00
31285;BME280;56605;51.516;6.742;2023-01-30T00:18:39;101688.69;;;2.37;100.00
31285;BME280;56605;51.516;6.742;2023-01-30T00:21:06;101705.22;;;2.39;100.00
31285;BME280;56605;51.516;6.742;2023-01-30T00:23:34;101676.25;;;2.39;100.00
31285;BME280;56605;51.516;6.742;2023-01-30T00:25:59;101676.84;;;2.44;100.00
31285;BME280;56605;51.516;6.742;2023-01-30T00:28:25;101678.53;;;2.45;100.00
31285;BME280;56605;51.516;6.742;2023-01-30T00:30:52;101672.22;;;2.48;100.00
31285;BME280;56605;51.516;6.742;2023-01-30T00:33:22;101651.88;;;2.50;100.00
31285;BME280;56605;51.516;6.742;2023-01-30T00:35:49;101654.53;;;2.50;100.00
31285;BME280;56605;51.516;6.742;2023-01-30T00:38:16;101641.91;;;2.55;100.00
31285;BME280;56605;51.516;6.742;2023-01-30T00:40:41;101627.81;;;2.56;100.00
31285;BME280;56605;51.516;6.742;2023-01-30T00:43:10;101643.41;;;2.59;100.00
31285;BME280;56605;51.516;6.742;2023-01-30T00:45:55;101641.53;;;2.61;100.00
31285;BME280;56605;51.516;6.742;2023-01-30T00:48:39;101637.75;;;2.65;100.00
31285;BME280;56605;51.516;6.742;2023-01-30T00:51:05;101615.84;;;2.65;100.00
31285;BME280;56605;51.516;6.742;2023-01-30T00:53:30;101623.53;;;2.68;100.00
31285;BME280;56605;51.516;6.742;2023-01-30T00:55:55;101619.88;;;2.71;100.00
31285;BME280;56605;51.516;6.742;2023-01-30T00:58:22;101624.88;;;2.75;100.00
31285;BME280;56605;51.516;6.742;2023-01-30T01:00:48;101634.56;;;2.75;100.00
31285;BME280;56605;51.516;6.742;2023-01-30T01:03:13;101629.41;;;2.73;100.00
31285;BME280;56605;51.516;6.742;2023-01-30T01:05:39;101635.72;;;2.71;100.00
31285;BME280;56605;51.516;6.742;2023-01-30T01:08:04;101622.53;;;2.71;100.00
31285;BME280;56605;51.516;6.742;2023-01-30T01:10:30;101614.63;;;2.71;100.00
31285;BME280;56605;51.516;6.742;2023-01-30T01:12:55;101613.00;;;2.68;100.00
31285;BME280;56605;51.516;6.742;2023-01-30T01:15:22;101595.22;;;2.72;100.00
31285;BME280;56605;51.516;6.742;2023-01-30T01:17:49;101601.88;;;2.77;100.00
31285;BME280;56605;51.516;6.742;2023-01-30T01:20:15;101601.88;;;2.77;100.00
31285;BME280;56605;51.516;6.742;2023-01-30T01:22:41;101603.28;;;2.83;100.00
31285;BME280;56605;51.516;6.742;2023-01-30T01:25:08;101600.38;;;2.88;100.00
31285;BME280;56605;51.516;6.742;2023-01-30T01:27:34;101605.47;;;2.91;100.00
31285;BME280;56605;51.516;6.742;2023-01-30T01:29:59;101593.88;;;2.94;100.00
31285;BME280;56605;51.516;6.742;2023-01-30T01:32:25;101599.03;;;2.95;100.00
31285;BME280;56605;51.516;6.742;2023-01-30T01:34:50;101587.66;;;2.95;100.00
31285;BME280;56605;51.516;6.742;2023-01-30T01:37:16;101586.81;;;2.94;100.00
31285;BME280;56605;51.516;6.742;2023-01-30T01:39:41;101598.75;;;3.00;100.00
31285;BME280;56605;51.516;6.742;2023-01-30T01:42:27;101579.44;;;2.99;100.00
31285;BME280;56605;51.516;6.742;2023-01-30T01:47:36;101583.59;;;3.03;100.00
31285;BME280;56605;51.516;6.742;2023-01-30T01:50:03;101566.53;;;3.09;100.00
31285;BME280;56605;51.516;6.742;2023-01-30T01:52:29;101572.44;;;3.13;100.00
31285;BME280;56605;51.516;6.742;2023-01-30T01:54:58;101562.53;;;3.16;100.00
31285;BME280;56605;51.516;6.742;2023-01-30T01:57:32;101570.16;;;3.21;100.00
31285;BME280;56605;51.516;6.742;2023-01-30T02:00:14;101550.34;;;3.28;100.00
31285;BME280;56605;51.516;6.742;2023-01-30T02:02:43;101551.19;;;3.29;100.00
31285;BME280;56605;51.516;6.742;2023-01-30T02:05:11;101542.25;;;3.32;100.00
31285;BME280;56605;51.516;6.742;2023-01-30T02:07:45;101521.44;;;3.40;100.00
31285;BME280;56605;51.516;6.742;2023-01-30T02:10:21;101525.56;;;3.44;100.00
31285;BME280;56605;51.516;6.742;2023-01-30T02:12:49;101519.25;;;3.47;100.00
31285;BME280;56605;51.516;6.742;2023-01-30T02:15:17;101512.38;;;3.44;100.00
31285;BME280;56605;51.516;6.742;2023-01-30T02:17:43;101511.03;;;3.51;100.00
31285;BME280;56605;51.516;6.742;2023-01-30T02:20:23;101512.69;;;3.52;100.00
31285;BME280;56605;51.516;6.742;2023-01-30T02:31:45;101476.59;;;3.66;100.00
31285;BME280;56605;51.516;6.742;2023-01-30T02:37:26;101484.44;;;3.67;100.00
31285;BME280;56605;51.516;6.742;2023-01-30T02:40:17;101470.59;;;3.64;100.00
31285;BME280;56605;51.516;6.742;2023-01-30T02:46:25;101477.38;;;3.68;100.00
31285;BME280;56605;51.516;6.742;2023-01-30T02:48:59;101468.59;;;3.67;100.00
31285;BME280;56605;51.516;6.742;2023-01-30T02:51:33;101463.19;;;3.69;100.00
31285;BME280;56605;51.516;6.742;2023-01-30T02:53:59;101467.41;;;3.72;100.00
31285;BME280;56605;51.516;6.742;2023-01-30T02:56:25;101477.06;;;3.73;100.00
31285;BME280;56605;51.516;6.742;2023-01-30T02:59:03;101460.25;;;3.74;100.00
31285;BME280;56605;51.516;6.742;2023-01-30T03:01:44;101461.09;;;3.74;100.00
31285;BME280;56605;51.516;6.742;2023-01-30T03:04:29;101452.97;;;3.77;100.00
31285;BME280;56605;51.516;6.742;2023-01-30T03:09:59;101446.72;;;3.78;100.00
31285;BME280;56605;51.516;6.742;2023-01-30T03:12:44;101445.88;;;3.78;100.00
31285;BME280;56605;51.516;6.742;2023-01-30T03:15:18;101440.81;;;3.75;100.00
31285;BME280;56605;51.516;6.742;2023-01-30T03:17:47;101431.94;;;3.76;100.00
31285;BME280;56605;51.516;6.742;2023-01-30T03:20:14;101430.78;;;3.80;100.00
31285;BME280;56605;51.516;6.742;2023-01-30T03:22:40;101417.56;;;3.80;100.00
31285;BME280;56605;51.516;6.742;2023-01-30T03:25:06;101416.59;;;3.81;100.00
31285;BME280;56605;51.516;6.742;2023-01-30T03:27:33;101414.06;;;3.79;100.00
31285;BME280;56605;51.516;6.742;2023-01-30T03:29:59;101406.25;;;3.78;100.00
31285;BME280;56605;51.516;6.742;2023-01-30T03:32:24;101423.06;;;3.77;100.00
31285;BME280;56605;51.516;6.742;2023-01-30T03:34:50;101422.00;;;3.79;100.00
31285;BME280;56605;51.516;6.742;2023-01-30T03:37:15;101427.19;;;3.81;100.00
31285;BME280;56605;51.516;6.742;2023-01-30T03:39:40;101412.28;;;3.80;100.00
31285;BME280;56605;51.516;6.742;2023-01-30T03:42:06;101415.88;;;3.79;100.00
31285;BME280;56605;51.516;6.742;2023-01-30T03:44:31;101409.75;;;3.78;100.00
31285;BME280;56605;51.516;6.742;2023-01-30T03:46:56;101397.41;;;3.79;100.00
31285;BME280;56605;51.516;6.742;2023-01-30T03:49:22;101402.69;;;3.79;100.00
31285;BME280;56605;51.516;6.742;2023-01-30T03:51:47;101388.63;;;3.78;100.00
31285;BME280;56605;51.516;6.742;2023-01-30T03:54:12;101393.16;;;3.76;100.00
31285;BME280;56605;51.516;6.742;2023-01-30T03:56:38;101400.16;;;3.77;100.00
31285;BME280;56605;51.516;6.742;2023-01-30T03:59:03;101400.47;;;3.73;100.00
31285;BME280;56605;51.516;6.742;2023-01-30T04:01:28;101388.31;;;3.70;100.00
31285;BME280;56605;51.516;6.742;2023-01-30T04:03:54;101388.63;;;3.65;100.00
31285;BME280;56605;51.516;6.742;2023-01-30T04:06:19;101386.72;;;3.67;100.00
31285;BME280;56605;51.516;6.742;2023-01-30T04:08:44;101382.28;;;3.68;100.00
31285;BME280;56605;51.516;6.742;2023-01-30T04:11:09;101387.47;;;3.70;100.00
31285;BME280;56605;51.516;6.742;2023-01-30T04:13:35;101391.06;;;3.68;100.00
31285;BME280;56605;51.516;6.742;2023-01-30T04:16:19;101384.19;;;3.66;100.00
31285;BME280;56605;51.516;6.742;2023-01-30T04:18:45;101390.22;;;3.68;100.00
31285;BME280;56605;51.516;6.742;2023-01-30T04:21:11;101379.53;;;3.70;100.00
31285;BME280;56605;51.516;6.742;2023-01-30T04:23:37;101385.69;;;3.70;100.00
31285;BME280;56605;51.516;6.742;2023-01-30T04:26:04;101383.16;;;3.68;100.00
31285;BME280;56605;51.516;6.742;2023-01-30T04:28:29;101383.16;;;3.68;100.00
31285;BME280;56605;51.516;6.742;2023-01-30T04:30:54;101382.19;;;3.70;100.00
31285;BME280;56605;51.516;6.742;2023-01-30T04:33:20;101379.44;;;3.71;100.00
31285;BME280;56605;51.516;6.742;2023-01-30T04:38:17;101378.59;;;3.71;100.00
31285;BME280;56605;51.516;6.742;2023-01-30T04:40:47;101380.16;;;3.73;100.00
31285;BME280;56605;51.516;6.742;2023-01-30T04:43:12;101383.75;;;3.72;100.00
31285;BME280;56605;51.516;6.742;2023-01-30T04:45:41;101359.13;;;3.72;100.00
31285;BME280;56605;51.516;6.742;2023-01-30T04:48:07;101360.53;;;3.77;100.00
31285;BME280;56605;51.516;6.742;2023-01-30T04:50:32;101371.00;;;3.79;100.00
31285;BME280;56605;51.516;6.742;2023-01-30T04:52:57;101373.84;;;3.76;100.00
31285;BME280;56605;51.516;6.742;2023-01-30T04:55:22;101366.63;;;3.78;100.00
31285;BME280;56605;51.516;6.742;2023-01-30T04:57:48;101364.94;;;3.77;100.00
31285;BME280;56605;51.516;6.742;2023-01-30T05:00:13;101369.16;;;3.79;100.00
31285;BME280;56605;51.516;6.742;2023-01-30T05:02:38;101371.72;;;3.81;100.00
31285;BME280;56605;51.516;6.742;2023-01-30T05:05:04;101366.41;;;3.81;100.00
31285;BME280;56605;51.516;6.742;2023-01-30T05:07:29;101370.75;;;3.82;100.00
31285;BME280;56605;51.516;6.742;2023-01-30T05:09:55;101366.22;;;3.84;100.00
31285;BME280;56605;51.516;6.742;2023-01-30T05:12:20;101362.72;;;3.84;100.00
31285;BME280;56605;51.516;6.742;2023-01-30T05:14:45;101368.84;;;3.84;100.00
31285;BME280;56605;51.516;6.742;2023-01-30T05:17:11;101358.19;;;3.86;100.00
31285;BME280;56605;51.516;6.742;2023-01-30T05:19:36;101364.22;;;3.88;100.00
31285;BME280;56605;51.516;6.742;2023-01-30T05:22:01;101355.13;;;3.92;100.00
31285;BME280;56605;51.516;6.742;2023-01-30T05:24:27;101355.84;;;3.94;100.00
31285;BME280;56605;51.516;6.742;2023-01-30T05:26:52;101357.44;;;3.97;100.00
31285;BME280;56605;51.516;6.742;2023-01-30T05:29:17;101352.88;;;3.99;100.00
31285;BME280;56605;51.516;6.742;2023-01-30T05:31:43;101352.03;;;3.98;100.00
31285;BME280;56605;51.516;6.742;2023-01-30T05:34:10;101354.56;;;4.00;100.00
31285;BME280;56605;51.516;6.742;2023-01-30T05:36:36;101362.38;;;4.01;100.00
31285;BME280;56605;51.516;6.742;2023-01-30T05:39:01;101348.00;;;4.05;100.00
31285;BME280;56605;51.516;6.742;2023-01-30T05:41:27;101346.59;;;4.13;100.00
31285;BME280;56605;51.516;6.742;2023-01-30T05:43:52;101357.69;;;4.18;100.00
31285;BME280;56605;51.516;6.742;2023-01-30T05:46:17;101356.59;;;4.21;100.00
31285;BME280;56605;51.516;6.742;2023-01-30T05:48:43;101347.16;;;4.29;100.00
31285;BME280;56605;51.516;6.742;2023-01-30T05:51:20;101334.25;;;4.38;100.00
31285;BME280;56605;51.516;6.742;2023-01-30T05:53:46;101344.94;;;4.36;100.00
31285;BME280;56605;51.516;6.742;2023-01-30T05:56:12;101359.28;;;4.45;100.00
31285;BME280;56605;51.516;6.742;2023-01-30T05:58:37;101350.38;;;4.46;100.00
31285;BME280;56605;51.516;6.742;2023-01-30T06:01:05;101368.47;;;4.52;100.00
31285;BME280;56605;51.516;6.742;2023-01-30T06:03:31;101361.72;;;4.48;100.00
31285;BME280;56605;51.516;6.742;2023-01-30T06:05:57;101363.91;;;4.54;100.00
31285;BME280;56605;51.516;6.742;2023-01-30T06:08:22;101369.59;;;4.61;100.00
31285;BME280;56605;51.516;6.742;2023-01-30T06:10:48;101363.53;;;4.59;100.00
31285;BME280;56605;51.516;6.742;2023-01-30T06:13:13;101372.00;;;4.64;100.00
31285;BME280;56605;51.516;6.742;2023-01-30T06:15:39;101374.31;;;4.69;100.00
31285;BME280;56605;51.516;6.742;2023-01-30T06:18:04;101367.84;;;4.73;100.00
31285;BME280;56605;51.516;6.742;2023-01-30T06:20:29;101369.41;;;4.76;100.00
31285;BME280;56605;51.516;6.742;2023-01-30T06:22:55;101373.63;;;4.78;100.00
31285;BME280;56605;51.516;6.742;2023-01-30T06:25:20;101366.31;;;4.82;100.00
31285;BME280;56605;51.516;6.742;2023-01-30T06:27:46;101366.06;;;4.85;100.00
31285;BME280;56605;51.516;6.742;2023-01-30T06:30:12;101372.94;;;4.88;100.00
31285;BME280;56605;51.516;6.742;2023-01-30T06:32:37;101371.25;;;4.87;100.00
31285;BME280;56605;51.516;6.742;2023-01-30T06:35:03;101365.22;;;4.85;100.00
31285;BME280;56605;51.516;6.742;2023-01-30T06:37:29;101363.44;;;4.85;100.00
31285;BME280;56605;51.516;6.742;2023-01-30T06:39:54;101372.19;;;4.86;100.00
31285;BME280;56605;51.516;6.742;2023-01-30T06:42:19;101386.28;;;4.86;100.00
31285;BME280;56605;51.516;6.742;2023-01-30T06:44:44;101384.88;;;4.93;100.00
31285;BME280;56605;51.516;6.742;2023-01-30T06:47:10;101391.22;;;4.91;100.00
31285;BME280;56605;51.516;6.742;2023-01-30T06:49:35;101390.16;;;4.93;100.00
31285;BME280;56605;51.516;6.742;2023-01-30T06:52:00;101393.31;;;4.99;100.00
31285;BME280;56605;51.516;6.742;2023-01-30T06:54:25;101397.16;;;4.94;100.00
31285;BME280;56605;51.516;6.742;2023-01-30T06:56:51;101394.78;;;5.03;100.00
31285;BME280;56605;51.516;6.742;2023-01-30T06:59:16;101391.03;;;5.05;100.00
31285;BME280;56605;51.516;6.742;2023-01-30T07:01:41;101403.19;;;5.08;100.00
31285;BME280;56605;51.516;6.742;2023-01-30T07:04:07;101393.81;;;5.15;100.00
31285;BME280;56605;51.516;6.742;2023-01-30T07:06:32;101383.50;;;5.12;100.00
31285;BME280;56605;51.516;6.742;2023-01-30T07:08:58;101381.44;;;5.16;100.00
31285;BME280;56605;51.516;6.742;2023-01-30T07:11:24;101379.66;;;5.16;100.00
31285;BME280;56605;51.516;6.742;2023-01-30T07:13:49;101382.66;;;5.12;100.00
31285;BME280;56605;51.516;6.742;2023-01-30T07:16:15;101385.19;;;5.13;100.00
31285;BME280;56605;51.516;6.742;2023-01-30T07:18:40;101387.47;;;5.18;100.00
31285;BME280;56605;51.516;6.742;2023-01-30T07:21:05;101392.91;;;5.16;100.00
31285;BME280;56605;51.516;6.742;2023-01-30T07:23:31;101389.28;;;5.17;100.00
31285;BME280;56605;51.516;6.742;2023-01-30T07:25:56;101380.84;;;5.12;100.00
31285;BME280;56605;51.516;6.742;2023-01-30T07:28:22;101383.63;;;5.11;100.00
31285;BME280;56605;51.516;6.742;2023-01-30T07:30:47;101400.53;;;5.08;100.00
31285;BME280;56605;51.516;6.742;2023-01-30T07:33:17;101415.72;;;5.06;100.00
31285;BME280;56605;51.516;6.742;2023-01-30T07:35:42;101411.34;;;5.05;100.00
31285;BME280;56605;51.516;6.742;2023-01-30T07:38:07;101410.53;;;5.04;100.00
31285;BME280;56605;51.516;6.742;2023-01-30T07:40:33;101416.53;;;5.06;100.00
31285;BME280;56605;51.516;6.742;2023-01-30T07:45:27;101415.38;;;5.11;100.00
31285;BME280;56605;51.516;6.742;2023-01-30T07:47:53;101411.41;;;5.16;100.00
31285;BME280;56605;51.516;6.742;2023-01-30T07:50:19;101418.28;;;5.19;100.00
31285;BME280;56605;51.516;6.742;2023-01-30T07:52:44;101427.91;;;5.20;100.00
31285;BME280;56605;51.516;6.742;2023-01-30T07:55:09;101421.59;;;5.10;100.00
31285;BME280;56605;51.516;6.742;2023-01-30T07:57:35;101420.25;;;5.04;100.00
31285;BME280;56605;51.516;6.742;2023-01-30T08:00:00;101415.53;;;4.96;100.00
31285;BME280;56605;51.516;6.742;2023-01-30T08:02:26;101418.59;;;5.03;100.00
31285;BME280;56605;51.516;6.742;2023-01-30T08:04:51;101424.78;;;5.15;100.00
31285;BME280;56605;51.516;6.742;2023-01-30T08:07:16;101426.00;;;5.22;100.00
31285;BME280;56605;51.516;6.742;2023-01-30T08:09:41;101417.81;;;5.25;100.00
31285;BME280;56605;51.516;6.742;2023-01-30T08:12:07;101428.66;;;5.22;100.00
31285;BME280;56605;51.516;6.742;2023-01-30T08:14:32;101420.94;;;5.19;100.00
31285;BME280;56605;51.516;6.742;2023-01-30T08:16:57;101415.53;;;5.20;100.00
31285;BME280;56605;51.516;6.742;2023-01-30T08:19:23;101432.25;;;5.21;100.00
31285;BME280;56605;51.516;6.742;2023-01-30T08:21:48;101440.19;;;5.21;100.00
31285;BME280;56605;51.516;6.742;2023-01-30T08:24:13;101426.09;;;5.20;100.00
31285;BME280;56605;51.516;6.742;2023-01-30T08:26:39;101426.34;;;5.17;100.00
31285;BME280;56605;51.516;6.742;2023-01-30T08:29:04;101436.03;;;5.30;100.00
31285;BME280;56605;51.516;6.742;2023-01-30T08:31:29;101440.00;;;5.36;100.00
31285;BME280;56605;51.516;6.742;2023-01-30T08:33:55;101443.59;;;5.35;100.00
31285;BME280;56605;51.516;6.742;2023-01-30T08:36:20;101438.19;;;5.36;100.00
31285;BME280;56605;51.516;6.742;2023-01-30T08:38:45;101440.72;;;5.38;100.00
31285;BME280;56605;51.516;6.742;2023-01-30T08:41:11;101445.66;;;5.42;100.00
31285;BME280;56605;51.516;6.742;2023-01-30T08:43:36;101449.16;;;5.43;100.00
31285;BME280;56605;51.516;6.742;2023-01-30T08:46:02;101466.84;;;5.42;100.00
31285;BME280;56605;51.516;6.742;2023-01-30T08:48:27;101483.47;;;5.44;100.00
31285;BME280;56605;51.516;6.742;2023-01-30T08:50:53;101473.97;;;5.42;100.00
31285;BME280;56605;51.516;6.742;2023-01-30T08:53:20;101467.19;;;5.38;100.00
31285;BME280;56605;51.516;6.742;2023-01-30T08:55:48;101453.34;;;5.34;100.00
31285;BME280;56605;51.516;6.742;2023-01-30T08:58:14;101446.38;;;5.33;100.00
31285;BME280;56605;51.516;6.742;2023-01-30T09:00:39;101449.75;;;5.35;100.00
31285;BME280;56605;51.516;6.742;2023-01-30T09:03:08;101435.31;;;5.39;100.00
31285;BME280;56605;51.516;6.742;2023-01-30T09:05:33;101455.88;;;5.36;100.00
31285;BME280;56605;51.516;6.742;2023-01-30T09:07:59;101448.06;;;5.34;100.00
31285;BME280;56605;51.516;6.742;2023-01-30T09:10:24;101463.94;;;5.34;100.00
31285;BME280;56605;51.516;6.742;2023-01-30T09:12:50;101454.91;;;5.37;100.00
31285;BME280;56605;51.516;6.742;2023-01-30T09:15:15;101472.72;;;5.35;100.00
31285;BME280;56605;51.516;6.742;2023-01-30T09:17:40;101466.13;;;5.40;100.00
31285;BME280;56605;51.516;6.742;2023-01-30T09:20:08;101470.72;;;5.50;100.00
31285;BME280;56605;51.516;6.742;2023-01-30T09:22:33;101476.41;;;5.56;100.00
31285;BME280;56605;51.516;6.742;2023-01-30T09:24:59;101483.03;;;5.62;100.00
31285;BME280;56605;51.516;6.742;2023-01-30T09:27:24;101489.16;;;5.63;100.00
31285;BME280;56605;51.516;6.742;2023-01-30T09:29:50;101485.34;;;5.67;100.00
31285;BME280;56605;51.516;6.742;2023-01-30T09:32:15;101483.16;;;5.61;100.00
31285;BME280;56605;51.516;6.742;2023-01-30T09:34:40;101497.75;;;5.66;100.00
31285;BME280;56605;51.516;6.742;2023-01-30T09:37:06;101502.47;;;5.74;100.00
31285;BME280;56605;51.516;6.742;2023-01-30T09:39:32;101501.38;;;5.77;100.00
31285;BME280;56605;51.516;6.742;2023-01-30T09:47:10;101483.88;;;5.63;100.00
31285;BME280;56605;51.516;6.742;2023-01-30T09:49:55;101487.38;;;5.63;100.00
31285;BME280;56605;51.516;6.742;2023-01-30T09:55:16;101481.22;;;5.63;100.00
31285;BME280;56605;51.516;6.742;2023-01-30T09:57:44;101499.06;;;5.61;100.00
31285;BME280;56605;51.516;6.742;2023-01-30T10:00:33;101494.13;;;5.67;100.00
31285;BME280;56605;51.516;6.742;2023-01-30T10:03:16;101492.66;;;5.63;100.00
31285;BME280;56605;51.516;6.742;2023-01-30T10:05:47;101501.25;;;5.67;100.00
31285;BME280;56605;51.516;6.742;2023-01-30T10:11:19;101509.06;;;6.16;100.00
31285;BME280;56605;51.516;6.742;2023-01-30T10:17:07;101506.38;;;6.04;100.00
31285;BME280;56605;51.516;6.742;2023-01-30T10:22:26;101512.16;;;5.98;100.00
31285;BME280;56605;51.516;6.742;2023-01-30T10:25:22;101508.25;;;5.91;100.00
31285;BME280;56605;51.516;6.742;2023-01-30T10:27:56;101508.53;;;5.88;100.00
31285;BME280;56605;51.516;6.742;2023-01-30T10:30:24;101517.53;;;5.85;100.00
31285;BME280;56605;51.516;6.742;2023-01-30T10:32:55;101499.72;;;5.87;100.00
31285;BME280;56605;51.516;6.742;2023-01-30T10:35:26;101501.63;;;5.85;100.00
31285;BME280;56605;51.516;6.742;2023-01-30T10:38:03;101499.59;;;5.89;100.00
31285;BME280;56605;51.516;6.742;2023-01-30T10:40:40;101497.06;;;5.87;100.00
31285;BME280;56605;51.516;6.742;2023-01-30T10:43:25;101483.06;;;5.85;100.00
31285;BME280;56605;51.516;6.742;2023-01-30T10:46:03;101487.91;;;5.91;100.00
31285;BME280;56605;51.516;6.742;2023-01-30T10:54:53;101507.38;;;6.49;100.00
31285;BME280;56605;51.516;6.742;2023-01-30T10:57:50;101516.66;;;6.66;100.00
31285;BME280;56605;51.516;6.742;2023-01-30T11:00:22;101520.88;;;6.34;100.00
31285;BME280;56605;51.516;6.742;2023-01-30T11:03:18;101517.63;;;6.19;100.00
31285;BME280;56605;51.516;6.742;2023-01-30T11:05:52;101525.44;;;6.21;100.00
31285;BME280;56605;51.516;6.742;2023-01-30T11:08:20;101524.34;;;6.24;100.00
31285;BME280;56605;51.516;6.742;2023-01-30T11:10:46;101523.41;;;6.25;100.00
31285;BME280;56605;51.516;6.742;2023-01-30T11:13:16;101516.16;;;6.27;100.00
31285;BME280;56605;51.516;6.742;2023-01-30T11:15:45;101523.66;;;6.33;100.00
31285;BME280;56605;51.516;6.742;2023-01-30T11:18:11;101516.78;;;6.30;100.00
31285;BME280;56605;51.516;6.742;2023-01-30T11:20:43;101521.13;;;6.31;100.00
31285;BME280;56605;51.516;6.742;2023-01-30T11:23:30;101521.34;;;6.28;100.00
31285;BME280;56605;51.516;6.742;2023-01-30T11:25:57;101530.41;;;6.26;100.00
31285;BME280;56605;51.516;6.742;2023-01-30T11:28:25;101516.78;;;6.30;100.00
31285;BME280;56605;51.516;6.742;2023-01-30T11:30:59;101531.50;;;6.34;100.00
31285;BME280;56605;51.516;6.742;2023-01-30T11:33:36;101507.13;;;6.41;100.00
31285;BME280;56605;51.516;6.742;2023-01-30T11:36:04;101516.53;;;6.45;100.00
31285;BME280;56605;51.516;6.742;2023-01-30T11:38:32;101508.56;;;6.56;100.00
31285;BME280;56605;51.516;6.742;2023-01-30T11:43:34;101525.66;;;6.87;100.00
31285;BME280;56605;51.516;6.742;2023-01-30T11:46:01;101539.41;;;6.80;100.00
31285;BME280;56605;51.516;6.742;2023-01-30T11:48:31;101525.41;;;6.90;100.00
31285;BME280;56605;51.516;6.742;2023-01-30T11:51:03;101514.56;;;6.93;100.00
31285;BME280;56605;51.516;6.742;2023-01-30T11:53:39;101522.75;;;6.90;100.00
31285;BME280;56605;51.516;6.742;2023-01-30T11:56:16;101513.00;;;6.79;100.00
31285;BME280;56605;51.516;6.742;2023-01-30T11:58:50;101525.69;;;6.75;100.00
31285;BME280;56605;51.516;6.742;2023-01-30T12:01:17;101514.09;;;6.76;100.00
31285;BME280;56605;51.516;6.742;2023-01-30T12:03:49;101515.78;;;6.77;100.00
31285;BME280;56605;51.516;6.742;2023-01-30T12:06:28;101522.66;;;6.68;100.00
31285;BME280;56605;51.516;6.742;2023-01-30T12:08:54;101530.97;;;6.64;100.00
31285;BME280;56605;51.516;6.742;2023-01-30T12:14:07;101520.38;;;6.75;100.00
31285;BME280;56605;51.516;6.742;2023-01-30T12:16:40;101524.34;;;6.69;100.00
31285;BME280;56605;51.516;6.742;2023-01-30T12:22:20;101543.81;;;6.47;100.00
31285;BME280;56605;51.516;6.742;2023-01-30T12:27:49;101517.72;;;7.19;100.00
31285;BME280;56605;51.516;6.742;2023-01-30T12:32:57;101538.38;;;7.16;100.00
31285;BME280;56605;51.516;6.742;2023-01-30T12:35:36;101538.91;;;6.98;100.00
31285;BME280;56605;51.516;6.742;2023-01-30T12:38:26;101540.84;;;6.84;100.00
31285;BME280;56605;51.516;6.742;2023-01-30T12:44:02;101534.97;;;6.81;100.00
31285;BME280;56605;51.516;6.742;2023-01-30T12:46:58;101536.41;;;6.74;100.00
31285;BME280;56605;51.516;6.742;2023-01-30T12:55:13;101539.75;;;6.87;100.00
31285;BME280;56605;51.516;6.742;2023-01-30T12:58:02;101548.94;;;6.83;100.00
31285;BME280;56605;51.516;6.742;2023-01-30T13:00:50;101559.06;;;6.89;100.00
31285;BME280;56605;51.516;6.742;2023-01-30T13:06:09;101556.06;;;6.82;100.00
31285;BME280;56605;51.516;6.742;2023-01-30T13:09:10;101573.28;;;7.00;100.00
31285;BME280;56605;51.516;6.742;2023-01-30T13:14:28;101569.78;;;7.10;100.00
31285;BME280;56605;51.516;6.742;2023-01-30T13:19:56;101556.84;;;7.17;100.00
31285;BME280;56605;51.516;6.742;2023-01-30T13:25:42;101574.13;;;7.12;100.00
31285;BME280;56605;51.516;6.742;2023-01-30T13:28:19;101583.31;;;7.07;100.00
31285;BME280;56605;51.516;6.742;2023-01-30T13:30:46;101582.81;;;7.02;100.00
31285;BME280;56605;51.516;6.742;2023-01-30T13:33:19;101581.63;;;6.95;100.00
31285;BME280;56605;51.516;6.742;2023-01-30T13:35:50;101591.66;;;6.91;100.00
31285;BME280;56605;51.516;6.742;2023-01-30T13:38:20;101582.59;;;6.94;100.00
31285;BME280;56605;51.516;6.742;2023-01-30T13:40:48;101593.69;;;6.99;100.00
31285;BME280;56605;51.516;6.742;2023-01-30T13:43:34;101593.44;;;7.02;100.00
31285;BME280;56605;51.516;6.742;2023-01-30T13:46:03;101610.69;;;6.96;100.00
31285;BME280;56605;51.516;6.742;2023-01-30T13:48:45;101617.56;;;6.99;100.00
31285;BME280;56605;51.516;6.742;2023-01-30T13:51:38;101612.75;;;7.04;100.00
31285;BME280;56605;51.516;6.742;2023-01-30T13:59:51;101619.63;;;7.07;100.00
31285;BME280;56605;51.516;6.742;2023-01-30T14:02:23;101622.03;;;7.10;100.00
31285;BME280;56605;51.516;6.742;2023-01-30T14:04:54;101638.84;;;7.43;100.00
31285;BME280;56605;51.516;6.742;2023-01-30T14:07:31;101631.16;;;7.40;100.00
31285;BME280;56605;51.516;6.742;2023-01-30T14:12:45;101623.69;;;7.99;100.00
31285;BME280;56605;51.516;6.742;2023-01-30T14:18:05;101644.34;;;7.19;100.00
31285;BME280;56605;51.516;6.742;2023-01-30T14:20:33;101653.19;;;6.96;100.00
31285;BME280;56605;51.516;6.742;2023-01-30T14:23:02;101643.50;;;6.50;100.00
31285;BME280;56605;51.516;6.742;2023-01-30T14:35:44;101667.16;;;6.53;100.00
31285;BME280;56605;51.516;6.742;2023-01-30T14:38:17;101675.47;;;6.71;100.00
31285;BME280;56605;51.516;6.742;2023-01-30T14:40:45;101671.16;;;6.70;100.00
31285;BME280;56605;51.516;6.742;2023-01-30T14:52:30;101698.31;;;6.96;100.00
31285;BME280;56605;51.516;6.742;2023-01-30T14:54:58;101703.13;;;7.14;100.00